Florinea, Brazil
Current Conditions -  °F | °C
As of 4:00 PM on Friday 19 Dec 2014 (Local Time) from SBLO Reporting Station
Scattered Clouds Scattered Clouds  
Wind Chill: 32°   Ceiling: Unl
Heat Index: 33°   Visibility: 6mi
Dew Point: 19°   Wind: 9mph
Humidity: 46%   Direction: 40°NE
Pressure: 29.77"   Gusts: NA
Location:  22.9°S, 50.73°W
Report Text: SBLO 191800Z 04008KT 9999 SCT045 32/19 Q1008
Loading
Personal Weather Stations






























Interactive Weather Map New forecast layout! Learn more

10-Day Weather Forecast

Advertisements
Track Severe Weather on mobile